Time;durP1;ratioP1;P1;durP2;ratioP2;P2;SDS_P1;SDS_P2;PMS_P1;PMS_P2;Temp;Humidity;BMP_temperature;BMP_pressure;BME280_temperature;BME280_humidity;BME280_pressure;Samples;Min_cycle;Max_cycle;Signal;HPM_P1;HPM_P2
2022/06/27 00:04:11;;;;;;;11.05;6.85;;;;;;;17.47;80.32;101509.69;10541340;28;20157;-71
2022/06/27 00:09:11;;;;;;;5.68;5.18;;;;;;;17.55;79.79;101514.84;10524919;28;20539;-71
2022/06/27 00:14:12;;;;;;;11.20;5.72;;;;;;;17.54;80.04;101507.69;10541990;28;20496;-71
2022/06/27 00:19:12;;;;;;;6.00;5.50;;;;;;;17.59;79.70;101516.91;10507611;28;20118;-70
2022/06/27 00:24:13;;;;;;;6.65;5.85;;;;;;;17.60;79.94;101515.00;10542490;28;20035;-72
2022/06/27 00:29:13;;;;;;;6.22;5.68;;;;;;;17.62;79.73;101515.63;10523502;28;20048;-72
2022/06/27 00:34:13;;;;;;;7.70;5.30;;;;;;;17.62;79.89;101510.97;10544848;28;20465;-71
2022/06/27 00:39:14;;;;;;;7.85;5.88;;;;;;;17.64;80.61;101521.69;10543744;28;20503;-71
2022/06/27 00:44:33;;;;;;;7.28;5.85;;;;;;;17.61;81.45;101527.63;10543329;28;20028;-72
2022/06/27 00:49:34;;;;;;;5.68;5.20;;;;;;;17.58;80.99;101539.03;10552916;28;20040;-75
2022/06/27 00:54:35;;;;;;;17.10;6.95;;;;;;;17.58;80.93;101541.78;10549226;28;20036;-72
2022/06/27 00:59:36;;;;;;;6.25;5.35;;;;;;;17.60;80.76;101539.66;10541346;28;20032;-71
2022/06/27 01:04:36;;;;;;;9.68;6.13;;;;;;;17.60;80.99;101545.13;10523108;28;20032;-72
2022/06/27 01:09:37;;;;;;;6.10;4.95;;;;;;;17.61;81.20;101530.34;10522640;28;20028;-72
2022/06/27 01:14:38;;;;;;;6.50;6.00;;;;;;;17.62;81.75;101532.88;10522484;28;20028;-71
2022/06/27 01:19:39;;;;;;;5.88;5.40;;;;;;;17.65;81.60;101531.59;10522212;28;20040;-72
2022/06/27 01:24:40;;;;;;;5.93;4.80;;;;;;;17.63;82.18;101529.06;10522891;28;20099;-71
2022/06/27 01:29:40;;;;;;;5.63;4.93;;;;;;;17.62;82.21;101523.84;10504004;28;20053;-70
2022/06/27 01:34:41;;;;;;;11.88;6.82;;;;;;;17.65;82.24;101532.44;10481973;28;20037;-72
2022/06/27 01:39:41;;;;;;;5.40;4.88;;;;;;;17.66;82.24;101534.09;10481471;28;20343;-72
2022/06/27 01:44:43;;;;;;;7.70;5.45;;;;;;;17.68;82.56;101531.13;10499114;28;20025;-72
2022/06/27 01:49:43;;;;;;;11.98;5.88;;;;;;;17.61;83.42;101509.31;10497566;28;20466;-72
2022/06/27 01:54:43;;;;;;;7.30;5.40;;;;;;;17.68;84.71;101514.72;10479869;28;20059;-72
2022/06/27 01:59:44;;;;;;;6.45;5.60;;;;;;;17.62;88.62;101513.72;10499112;28;20098;-73
2022/06/27 02:04:44;;;;;;;6.00;5.50;;;;;;;17.49;92.11;101508.41;10464485;28;20036;-71
2022/06/27 02:09:45;;;;;;;7.07;5.60;;;;;;;17.47;89.46;101509.69;10480295;28;20032;-72
2022/06/27 02:14:49;;;;;;;6.25;5.35;;;;;;;17.38;87.76;101492.72;10464338;28;20028;-72
2022/06/27 02:19:49;;;;;;;6.88;5.57;;;;;;;17.23;87.11;101487.66;10479552;28;20054;-72
2022/06/27 02:24:50;;;;;;;6.35;5.18;;;;;;;17.02;86.64;101488.91;10497754;28;20043;-71
2022/06/27 02:29:51;;;;;;;13.60;5.25;;;;;;;16.92;86.71;101494.88;10525706;28;20044;-71
2022/06/27 02:34:51;;;;;;;6.05;5.45;;;;;;;16.90;87.34;101491.53;10547269;28;20094;-72
2022/06/27 02:39:55;;;;;;;9.95;5.50;;;;;;;16.89;87.02;101500.81;10529841;28;20063;-72
2022/06/27 02:44:56;;;;;;;7.18;6.45;;;;;;;16.81;86.66;101498.34;10547532;28;20401;-73
2022/06/27 02:49:56;;;;;;;12.43;5.85;;;;;;;16.69;86.91;101487.28;10546505;28;20032;-72
2022/06/27 02:55:01;;;;;;;7.05;6.35;;;;;;;16.59;87.64;101488.84;10547915;28;20031;-72
2022/06/27 03:00:04;;;;;;;6.88;6.28;;;;;;;16.48;87.38;101476.75;10528277;28;20366;-72
2022/06/27 03:05:05;;;;;;;9.45;6.93;;;;;;;16.47;87.32;101480.53;10547605;28;20032;-72
2022/06/27 03:10:06;;;;;;;15.15;7.13;;;;;;;16.43;87.25;101477.41;10529796;28;20528;-73
2022/06/27 03:15:06;;;;;;;8.40;7.45;;;;;;;16.40;87.66;101471.53;10551982;28;20457;-72
2022/06/27 03:20:07;;;;;;;12.98;6.53;;;;;;;16.38;87.96;101465.47;10554227;28;20032;-72
2022/06/27 03:25:08;;;;;;;6.95;6.28;;;;;;;16.30;87.99;101465.72;10545973;28;20529;-70
2022/06/27 03:30:09;;;;;;;12.20;6.88;;;;;;;16.19;87.71;101467.28;10546267;28;20070;-72
2022/06/27 03:35:09;;;;;;;18.95;7.78;;;;;;;16.12;87.87;101482.91;10545286;28;20036;-70
2022/06/27 03:40:10;;;;;;;7.72;7.05;;;;;;;16.12;88.30;101471.97;10530168;28;20032;-73
2022/06/27 03:45:11;;;;;;;6.38;5.68;;;;;;;16.17;88.10;101463.94;10543839;28;20047;-72
2022/06/27 03:50:13;;;;;;;8.57;6.85;;;;;;;16.22;88.22;101440.34;10525256;28;20032;-72
2022/06/27 03:55:13;;;;;;;7.05;6.50;;;;;;;16.26;88.24;101444.31;10542135;28;20366;-71
2022/06/27 04:00:14;;;;;;;7.03;6.47;;;;;;;16.24;88.32;101443.72;10543359;28;20036;-72
2022/06/27 04:05:14;;;;;;;10.15;7.25;;;;;;;16.23;89.37;101452.94;10542393;28;20042;-73
2022/06/27 04:10:15;;;;;;;9.50;7.43;;;;;;;16.27;89.15;101467.88;10524773;28;20093;-72
2022/06/27 04:15:15;;;;;;;8.32;7.47;;;;;;;16.33;88.89;101471.59;10542909;28;20426;-72
2022/06/27 04:20:15;;;;;;;11.23;7.78;;;;;;;16.30;89.16;101463.81;10542068;28;20035;-72
2022/06/27 04:25:16;;;;;;;10.40;7.45;;;;;;;16.34;89.33;101469.72;10542115;28;20492;-71
2022/06/27 04:30:16;;;;;;;14.30;8.15;;;;;;;16.44;90.70;101440.81;10524159;28;20051;-72
2022/06/27 04:35:17;;;;;;;15.02;7.95;;;;;;;16.72;90.45;101428.59;10542445;28;20028;-71
2022/06/27 04:40:20;;;;;;;10.55;8.05;;;;;;;16.92;90.06;101406.50;10542185;28;20036;-70
2022/06/27 04:45:20;;;;;;;7.03;6.32;;;;;;;17.07;90.29;101403.38;10523238;28;20538;-70
2022/06/27 04:50:22;;;;;;;16.25;8.20;;;;;;;17.06;89.82;101401.72;10539878;28;20185;-71
2022/06/27 04:55:24;;;;;;;7.97;7.00;;;;;;;16.97;89.96;101414.84;10540911;28;20465;-70
2022/06/27 05:00:24;;;;;;;6.35;5.82;;;;;;;16.83;90.18;101414.19;10540481;28;20036;-70
2022/06/27 05:05:25;;;;;;;13.15;8.43;;;;;;;16.70;90.04;101414.28;10540638;28;20036;-65
2022/06/27 05:10:25;;;;;;;19.10;9.07;;;;;;;16.79;90.04;101417.59;10523722;28;20032;-65
2022/06/27 05:15:26;;;;;;;16.83;8.05;;;;;;;18.52;89.35;101421.56;10541520;28;20157;-73
2022/06/27 05:20:28;;;;;;;9.85;8.32;;;;;;;19.67;91.73;101430.97;10522670;28;20474;-72
2022/06/27 05:25:28;;;;;;;10.63;6.45;;;;;;;18.83;91.23;101422.31;10539934;28;20028;-73
2022/06/27 05:30:30;;;;;;;10.18;8.30;;;;;;;18.46;90.60;101428.81;10521176;28;20032;-72
2022/06/27 05:35:30;;;;;;;6.60;6.00;;;;;;;18.25;90.33;101441.22;10543126;28;20050;-73
2022/06/27 05:40:33;;;;;;;15.65;7.70;;;;;;;18.20;89.83;101452.03;10549931;28;20043;-73
2022/06/27 05:45:34;;;;;;;12.07;9.02;;;;;;;18.15;90.00;101448.31;10552386;28;20433;-79
2022/06/27 05:50:34;;;;;;;14.82;7.07;;;;;;;18.22;89.54;101455.38;10521497;28;20036;-80
2022/06/27 05:55:35;;;;;;;12.77;7.20;;;;;;;18.27;89.91;101471.13;10543643;28;20481;-80
2022/06/27 06:00:36;;;;;;;8.85;7.95;;;;;;;18.33;90.79;101498.44;10524007;28;20035;-80
2022/06/27 06:05:36;;;;;;;9.98;8.00;;;;;;;18.45;94.67;101500.38;10548258;28;20105;-79
2022/06/27 06:10:37;;;;;;;12.10;8.45;;;;;;;18.51;92.77;101507.66;10547463;28;20048;-80
2022/06/27 06:15:38;;;;;;;18.63;7.55;;;;;;;18.60;93.21;101495.25;10547573;28;20040;-80
2022/06/27 06:20:38;;;;;;;15.07;8.30;;;;;;;18.75;93.49;101514.03;10546480;28;20044;-80
2022/06/27 06:25:39;;;;;;;10.07;8.07;;;;;;;18.85;93.19;101505.22;10549852;28;20045;-80
2022/06/27 06:30:39;;;;;;;12.50;9.77;;;;;;;19.03;92.26;101518.81;10546808;28;20362;-80
2022/06/27 06:35:40;;;;;;;13.52;6.82;;;;;;;19.31;90.88;101520.84;10546737;28;20113;-81
2022/06/27 06:40:40;;;;;;;10.02;8.55;;;;;;;19.43;91.60;101543.66;10511554;28;20128;-80
2022/06/27 06:45:41;;;;;;;14.93;8.32;;;;;;;19.45;90.14;101543.38;10546121;28;20040;-80
2022/06/27 06:50:41;;;;;;;13.90;8.68;;;;;;;19.24;90.90;101528.34;10529044;28;20411;-80
2022/06/27 06:55:42;;;;;;;12.13;8.45;;;;;;;19.21;90.14;101496.75;10545013;28;20477;-80
2022/06/27 07:00:43;;;;;;;11.80;7.93;;;;;;;19.29;88.83;101493.63;10546702;28;20036;-80
2022/06/27 07:05:45;;;;;;;18.45;8.68;;;;;;;19.38;89.05;101482.28;10527626;28;20043;-80
2022/06/27 07:10:45;;;;;;;14.60;7.85;;;;;;;19.40;88.32;101475.47;10510691;28;20036;-80
2022/06/27 07:15:46;;;;;;;12.77;8.13;;;;;;;19.55;88.79;101469.44;10544060;28;20039;-80
2022/06/27 07:20:47;;;;;;;10.00;7.15;;;;;;;19.77;88.03;101471.53;10545435;28;20370;-80
2022/06/27 07:25:48;;;;;;;11.48;7.20;;;;;;;20.19;87.48;101470.13;10529515;28;20051;-79
2022/06/27 07:30:50;;;;;;;8.98;7.70;;;;;;;20.24;87.57;101490.59;10544333;28;20044;-80
2022/06/27 07:35:50;;;;;;;10.88;8.60;;;;;;;20.23;87.60;101487.00;10544333;28;20040;-80
2022/06/27 07:40:50;;;;;;;10.13;6.70;;;;;;;20.34;87.52;101508.09;10544598;28;20358;-80
2022/06/27 07:45:51;;;;;;;12.27;6.85;;;;;;;20.55;87.37;101520.31;10544742;28;20063;-80
2022/06/27 07:50:52;;;;;;;10.30;7.45;;;;;;;20.75;87.16;101516.25;10544290;28;20028;-80
2022/06/27 07:55:53;;;;;;;16.60;7.53;;;;;;;20.76;87.04;101515.16;10548599;28;20424;-80
2022/06/27 08:00:53;;;;;;;16.85;6.72;;;;;;;20.76;86.42;101517.91;10525795;28;20376;-80
2022/06/27 08:05:54;;;;;;;11.00;6.75;;;;;;;20.96;85.74;101526.47;10545789;28;20036;-80
2022/06/27 08:10:55;;;;;;;7.25;6.55;;;;;;;21.08;85.47;101518.94;10542921;28;20044;-80
2022/06/27 08:15:55;;;;;;;6.57;5.50;;;;;;;21.06;84.95;101507.38;10525095;28;20036;-79
2022/06/27 08:20:56;;;;;;;13.07;7.38;;;;;;;20.89;83.95;101495.53;10541558;28;20086;-80
2022/06/27 08:25:57;;;;;;;6.78;5.82;;;;;;;21.13;83.83;101494.25;10526731;28;20059;-80
2022/06/27 08:31:01;;;;;;;10.82;6.68;;;;;;;21.88;82.90;101508.47;10524404;28;20481;-80
2022/06/27 08:36:03;;;;;;;6.47;5.35;;;;;;;21.99;82.06;101509.44;10542396;28;20492;-80
2022/06/27 08:41:03;;;;;;;10.40;6.55;;;;;;;22.60;81.15;101542.34;10541767;28;20452;-81
2022/06/27 08:46:05;;;;;;;10.93;5.00;;;;;;;22.94;81.15;101546.53;10523409;28;20032;-80
2022/06/27 08:51:06;;;;;;;5.78;4.45;;;;;;;22.83;79.74;101544.72;10523256;28;20031;-81
2022/06/27 08:56:09;;;;;;;4.05;3.63;;;;;;;22.42;78.80;101547.13;10540412;28;20044;-80
2022/06/27 09:01:21;;;;;;;3.95;3.13;;;;;;;22.33;78.55;101556.13;10491319;28;20402;-80
2022/06/27 09:06:22;;;;;;;5.22;4.15;;;;;;;22.26;78.41;101553.59;10490642;28;20049;-80
2022/06/27 09:11:35;;;;;;;6.20;3.83;;;;;;;22.26;78.71;101559.94;10490944;28;20460;-80
2022/06/27 09:16:36;;;;;;;6.78;5.28;;;;;;;22.25;76.18;101552.75;10490338;28;20456;-80
2022/06/27 09:21:36;;;;;;;5.55;4.82;;;;;;;22.26;78.03;101553.59;10489690;28;20040;-79
2022/06/27 09:26:39;;;;;;;6.65;3.95;;;;;;;22.47;78.26;101540.84;10495781;28;20064;-80
2022/06/27 09:31:45;;;;;;;4.88;3.38;;;;;;;22.87;76.85;101543.09;10490599;28;20040;-80
2022/06/27 09:36:51;;;;;;;10.80;4.60;;;;;;;23.00;72.61;101554.84;10489026;28;20028;-79
2022/06/27 09:41:56;;;;;;;6.97;3.28;;;;;;;22.92;71.67;101556.13;10488386;28;20360;-80
2022/06/27 09:47:02;;;;;;;2.57;2.37;;;;;;;22.81;70.19;101557.97;10488990;28;20040;-80
2022/06/27 09:52:05;;;;;;;4.47;3.03;;;;;;;23.03;64.77;101557.06;10489050;28;20853;-81
2022/06/27 09:57:06;;;;;;;2.63;2.38;;;;;;;23.38;68.14;101554.53;10493657;28;20064;-80
2022/06/27 10:02:07;;;;;;;4.40;2.40;;;;;;;23.63;67.01;101555.78;10488389;28;20109;-81
2022/06/27 10:07:08;;;;;;;5.25;3.03;;;;;;;23.62;69.47;101554.13;10489217;28;20098;-80
2022/06/27 10:12:28;;;;;;;5.75;2.78;;;;;;;23.48;69.78;101550.16;10447499;28;20040;-81
2022/06/27 10:17:28;;;;;;;3.95;2.83;;;;;;;23.19;72.12;101556.06;10460214;28;20025;-80
2022/06/27 10:22:28;;;;;;;11.63;2.40;;;;;;;22.92;72.67;101548.69;10443682;28;20033;-80
2022/06/27 10:27:29;;;;;;;2.75;2.53;;;;;;;22.63;71.72;101556.44;10464490;28;20029;-80
2022/06/27 10:32:41;;;;;;;6.55;2.78;;;;;;;22.40;72.09;101554.00;10459584;28;20032;-80
2022/06/27 10:37:42;;;;;;;6.95;3.95;;;;;;;22.60;72.92;101547.84;10459811;28;20028;-79
2022/06/27 10:42:52;;;;;;;7.25;3.92;;;;;;;22.74;72.36;101547.13;10426583;28;20247;-80
2022/06/27 10:48:01;;;;;;;7.20;3.75;;;;;;;22.94;72.25;101543.75;10460870;28;20483;-81
2022/06/27 10:53:19;;;;;;;10.70;4.82;;;;;;;23.26;72.03;101553.06;10460907;28;20090;-80
2022/06/27 10:58:32;;;;;;;5.70;3.78;;;;;;;23.42;69.68;101550.16;10458231;28;20052;-80
2022/06/27 11:03:32;;;;;;;5.97;3.97;;;;;;;23.81;69.55;101552.59;10458944;28;20223;-81
2022/06/27 11:08:34;;;;;;;7.90;4.25;;;;;;;24.35;69.90;101557.72;10441825;28;20056;-80
2022/06/27 11:13:53;;;;;;;13.95;4.63;;;;;;;24.87;69.62;101541.16;10459264;28;20150;-81
2022/06/27 11:18:58;;;;;;;5.97;4.85;;;;;;;24.83;62.79;101536.19;10458992;28;20461;-80
2022/06/27 11:24:04;;;;;;;14.32;4.32;;;;;;;24.14;61.30;101531.09;10458708;28;20489;-79
2022/06/27 11:34:28;;;;;;;11.10;5.22;;;;;;;23.16;63.52;101537.25;10443284;28;20037;-80
2022/06/27 11:39:30;;;;;;;8.13;3.33;;;;;;;22.76;64.35;101541.38;10456700;28;20053;-80
2022/06/27 11:44:31;;;;;;;5.68;3.60;;;;;;;22.12;62.18;101530.25;10458219;28;20037;-80
2022/06/27 11:49:35;;;;;;;2.63;2.33;;;;;;;21.62;65.09;101528.53;10456410;28;20041;-79
2022/06/27 11:54:44;;;;;;;2.90;2.58;;;;;;;21.39;66.16;101532.38;10459472;28;20025;-80
2022/06/27 11:59:48;;;;;;;5.70;2.75;;;;;;;21.10;67.48;101536.06;10456350;28;20496;-79
2022/06/27 12:04:49;;;;;;;6.75;2.75;;;;;;;20.91;68.73;101509.91;10455790;28;20531;-79
2022/06/27 12:09:51;;;;;;;11.98;5.20;;;;;;;20.69;70.62;101533.75;10439218;28;20115;-78
2022/06/27 12:14:52;;;;;;;7.38;4.28;;;;;;;20.10;72.55;101553.28;10455641;28;20029;-80
2022/06/27 12:20:01;;;;;;;10.20;6.32;;;;;;;19.11;75.91;101592.56;10438741;28;20384;-80
2022/06/27 12:25:01;;;;;;;10.85;5.85;;;;;;;17.43;100.00;101676.34;10464307;28;20047;-85
2022/06/27 12:30:02;;;;;;;7.57;4.95;;;;;;;15.77;100.00;101765.41;10461420;28;20511;-81
2022/06/27 12:35:03;;;;;;;10.75;3.47;;;;;;;14.92;100.00;101782.47;10438360;28;20132;-77
2022/06/27 12:40:04;;;;;;;6.53;3.25;;;;;;;14.68;100.00;101790.16;10455959;28;20068;-79
2022/06/27 12:45:05;;;;;;;17.30;4.85;;;;;;;14.70;100.00;101785.31;10456195;28;20106;-79
2022/06/27 12:50:06;;;;;;;16.45;4.80;;;;;;;14.84;100.00;101769.88;10454429;28;20098;-79
2022/06/27 12:55:07;;;;;;;9.65;5.50;;;;;;;15.01;100.00;101765.72;10456830;28;20047;-79
2022/06/27 13:00:08;;;;;;;12.57;4.03;;;;;;;15.12;100.00;101772.44;10454083;28;20057;-77
2022/06/27 13:05:09;;;;;;;3.67;3.38;;;;;;;15.07;100.00;101794.06;10455739;28;20044;-77
2022/06/27 13:10:10;;;;;;;7.43;3.35;;;;;;;15.00;100.00;101795.94;10455408;28;20037;-76
2022/06/27 13:15:10;;;;;;;18.42;4.65;;;;;;;14.89;100.00;101798.19;10455042;28;20037;-76
2022/06/27 13:20:12;;;;;;;4.10;2.95;;;;;;;14.86;100.00;101808.66;10454966;28;20171;-76
2022/06/27 13:25:13;;;;;;;4.53;2.65;;;;;;;14.85;100.00;101843.28;10454650;28;20116;-75
2022/06/27 13:30:13;;;;;;;4.10;3.03;;;;;;;14.72;100.00;101840.50;10456043;28;20033;-76
2022/06/27 13:35:14;;;;;;;10.40;3.63;;;;;;;14.77;100.00;101839.88;10454809;28;20041;-76
2022/06/27 13:40:14;;;;;;;12.77;4.07;;;;;;;14.70;100.00;101831.66;10454694;28;20128;-76
2022/06/27 13:45:15;;;;;;;3.42;2.97;;;;;;;14.72;100.00;101836.94;10457305;28;20059;-76
2022/06/27 13:50:15;;;;;;;6.22;3.17;;;;;;;14.91;100.00;101813.53;10462439;28;20041;-76
2022/06/27 13:55:15;;;;;;;9.80;3.28;;;;;;;15.30;100.00;101818.25;10461455;28;20060;-76
2022/06/27 14:00:16;;;;;;;14.45;4.60;;;;;;;15.65;100.00;101816.22;10461222;28;20045;-76
2022/06/27 14:05:17;;;;;;;12.75;4.38;;;;;;;15.53;100.00;101788.69;10460919;28;20048;-76
2022/06/27 14:10:19;;;;;;;5.75;3.33;;;;;;;15.46;100.00;101790.56;10444335;28;20036;-76
2022/06/27 14:15:19;;;;;;;8.50;3.30;;;;;;;15.64;100.00;101780.94;10461866;28;20380;-76
2022/06/27 14:20:21;;;;;;;4.57;3.33;;;;;;;15.73;100.00;101779.69;10461370;28;20037;-76
2022/06/27 14:25:24;;;;;;;4.75;3.58;;;;;;;15.92;100.00;101781.59;10462063;28;20037;-76
2022/06/27 14:30:24;;;;;;;4.03;2.28;;;;;;;15.84;100.00;101757.22;10459806;28;20112;-76
2022/06/27 14:35:24;;;;;;;4.40;2.83;;;;;;;15.48;100.00;101749.44;10460910;28;20115;-76
2022/06/27 14:40:25;;;;;;;4.70;2.47;;;;;;;15.11;100.00;101736.13;10460817;28;20064;-76
2022/06/27 14:45:25;;;;;;;9.52;2.53;;;;;;;15.26;100.00;101733.25;10460342;28;20043;-77
2022/06/27 14:50:26;;;;;;;11.35;3.70;;;;;;;15.55;100.00;101756.56;10460315;28;20177;-77
2022/06/27 14:55:26;;;;;;;9.52;2.80;;;;;;;15.53;100.00;101752.34;10459812;28;20057;-76
2022/06/27 15:00:26;;;;;;;2.42;2.08;;;;;;;16.43;100.00;101753.53;10459253;28;20053;-76
2022/06/27 15:05:27;;;;;;;10.85;2.58;;;;;;;17.42;100.00;101756.78;10459838;28;20116;-75
2022/06/27 15:10:27;;;;;;;3.35;2.60;;;;;;;18.02;100.00;101783.69;10458139;28;20457;-75
2022/06/27 15:15:28;;;;;;;6.45;2.38;;;;;;;18.38;100.00;101806.75;10457874;28;20052;-75
2022/06/27 15:20:28;;;;;;;3.13;2.75;;;;;;;18.58;100.00;101804.63;10458878;28;20067;-75
2022/06/27 15:25:28;;;;;;;8.80;2.35;;;;;;;18.72;100.00;101799.81;10459059;28;20037;-76
2022/06/27 15:30:31;;;;;;;9.43;2.80;;;;;;;19.12;100.00;101816.66;10459039;28;20075;-77
2022/06/27 15:35:31;;;;;;;3.40;2.85;;;;;;;19.44;100.00;101820.00;10458386;28;20028;-78
2022/06/27 15:40:31;;;;;;;9.48;2.03;;;;;;;19.54;100.00;101819.41;10456922;28;20033;-79
2022/06/27 15:45:32;;;;;;;6.38;2.60;;;;;;;19.59;100.00;101811.31;10458387;28;20036;-78
2022/06/27 15:50:33;;;;;;;5.72;2.92;;;;;;;18.67;100.00;101825.22;10457950;28;20037;-78
2022/06/27 15:55:35;;;;;;;2.97;2.42;;;;;;;18.09;100.00;101818.22;10457451;28;20481;-78
2022/06/27 16:00:35;;;;;;;3.30;2.33;;;;;;;17.31;100.00;101815.00;10455899;28;20483;-77
2022/06/27 16:05:35;;;;;;;4.03;2.33;;;;;;;17.15;100.00;101825.41;10456056;28;20036;-78
2022/06/27 16:10:37;;;;;;;2.22;2.03;;;;;;;16.96;100.00;101816.22;10421629;28;20033;-77
2022/06/27 16:15:37;;;;;;;9.02;2.35;;;;;;;16.93;100.00;101822.13;10439454;28;20044;-80
2022/06/27 16:20:38;;;;;;;7.47;2.22;;;;;;;17.51;100.00;101806.66;10455403;28;20029;-75
2022/06/27 16:25:38;;;;;;;2.53;2.33;;;;;;;17.65;100.00;101814.56;10456432;28;20112;-75
2022/06/27 16:35:58;;;;;;;4.28;1.67;;;;;;;17.24;100.00;101822.41;10441263;28;20476;-75
2022/06/27 16:40:59;;;;;;;1.02;1.02;;;;;;;17.33;100.00;101815.63;10455982;28;20040;-75
2022/06/27 16:45:59;;;;;;;2.33;2.13;;;;;;;17.09;100.00;101828.16;10455809;28;20029;-75
2022/06/27 16:51:02;;;;;;;4.10;3.05;;;;;;;17.14;100.00;101828.38;10455724;28;20033;-76
2022/06/27 16:56:04;;;;;;;1.90;1.40;;;;;;;17.00;100.00;101815.78;10455401;28;20029;-75
2022/06/27 17:01:06;;;;;;;2.60;1.52;;;;;;;16.93;100.00;101819.41;10454017;28;20052;-76
2022/06/27 17:06:06;;;;;;;13.55;1.30;;;;;;;16.91;100.00;101820.66;10454374;28;20036;-76
2022/06/27 17:11:07;;;;;;;2.08;1.55;;;;;;;16.87;100.00;101820.25;10455339;28;20467;-76
2022/06/27 17:16:07;;;;;;;2.20;1.48;;;;;;;16.91;100.00;101820.66;10454631;28;20111;-76
2022/06/27 17:21:09;;;;;;;3.33;2.63;;;;;;;16.97;100.00;101825.28;10460442;28;20432;-77
2022/06/27 17:26:10;;;;;;;3.00;2.47;;;;;;;17.13;100.00;101816.59;10462055;28;20051;-78
2022/06/27 17:31:10;;;;;;;1.52;1.42;;;;;;;17.06;100.00;101829.44;10467057;28;20039;-77
2022/06/27 17:36:10;;;;;;;2.20;1.88;;;;;;;17.02;100.00;101838.31;10464357;28;20036;-77
2022/06/27 17:41:11;;;;;;;5.00;2.88;;;;;;;16.98;100.00;101846.13;10463203;28;20037;-77
2022/06/27 17:46:11;;;;;;;7.95;3.85;;;;;;;17.03;100.00;101853.66;10463116;28;20033;-78
2022/06/27 17:51:11;;;;;;;5.90;3.03;;;;;;;16.99;100.00;101857.91;10462802;28;20493;-79
2022/06/27 17:56:12;;;;;;;7.63;2.67;;;;;;;16.91;100.00;101858.97;10462342;28;20230;-78
2022/06/27 18:01:12;;;;;;;1.63;1.52;;;;;;;16.96;100.00;101873.69;10467355;28;20527;-78
2022/06/27 18:06:13;;;;;;;5.03;2.20;;;;;;;16.91;100.00;101867.19;10466329;28;20095;-78
2022/06/27 18:11:13;;;;;;;12.18;1.73;;;;;;;16.83;100.00;101876.47;10460818;28;20453;-78
2022/06/27 18:16:14;;;;;;;3.13;1.80;;;;;;;16.84;100.00;101880.03;10462666;28;20037;-79
2022/06/27 18:21:14;;;;;;;7.78;2.28;;;;;;;16.87;100.00;101882.34;10460043;28;20029;-79
2022/06/27 18:26:14;;;;;;;12.45;2.10;;;;;;;16.89;100.00;101891.19;10460973;28;20045;-79
2022/06/27 18:31:15;;;;;;;3.70;2.63;;;;;;;16.84;100.00;101893.72;10461791;28;20036;-79
2022/06/27 18:36:16;;;;;;;2.30;1.70;;;;;;;16.81;100.00;101897.72;10470552;28;20094;-79
2022/06/27 18:41:16;;;;;;;4.35;2.53;;;;;;;16.71;100.00;101902.78;10465681;28;20087;-79
2022/06/27 18:46:17;;;;;;;7.28;2.17;;;;;;;16.69;100.00;101899.44;10460716;28;20041;-79
2022/06/27 18:51:17;;;;;;;7.72;1.83;;;;;;;16.58;100.00;101897.34;10459157;28;20029;-80
2022/06/27 18:56:18;;;;;;;3.42;1.98;;;;;;;16.51;100.00;101909.13;10459405;28;20507;-72
2022/06/27 19:01:18;;;;;;;2.27;1.30;;;;;;;16.44;100.00;101904.72;10245996;28;20085;-72
2022/06/27 19:06:19;;;;;;;3.05;1.90;;;;;;;16.28;100.00;101898.63;10374876;28;20275;-72
2022/06/27 19:11:19;;;;;;;2.83;1.65;;;;;;;16.12;100.00;101914.63;10376507;28;20038;-73
2022/06/27 19:16:21;;;;;;;1.45;1.27;;;;;;;16.07;100.00;101917.13;10375846;28;20197;-71
2022/06/27 19:21:21;;;;;;;8.02;2.03;;;;;;;15.98;100.00;101924.66;10390875;28;20034;-74
2022/06/27 19:26:23;;;;;;;6.65;1.63;;;;;;;15.90;100.00;101925.72;10373446;28;20041;-71
2022/06/27 19:31:23;;;;;;;0.90;0.90;;;;;;;15.88;100.00;101929.72;10390772;28;20030;-72
2022/06/27 19:36:24;;;;;;;2.35;1.73;;;;;;;15.87;100.00;101934.34;10376184;28;20038;-73
2022/06/27 19:41:25;;;;;;;9.70;4.25;;;;;;;15.80;100.00;101937.06;10373072;28;20351;-76
2022/06/27 19:46:25;;;;;;;12.95;2.05;;;;;;;15.72;100.00;101959.06;10373871;28;20042;-72
2022/06/27 19:51:26;;;;;;;2.55;2.35;;;;;;;15.70;100.00;101960.34;10373156;28;20034;-73
2022/06/27 19:56:26;;;;;;;3.38;2.85;;;;;;;15.65;100.00;101954.63;10373427;28;20050;-73
2022/06/27 20:01:27;;;;;;;2.72;1.30;;;;;;;15.64;100.00;101974.78;10370981;28;20476;-74
2022/06/27 20:06:27;;;;;;;5.63;2.58;;;;;;;15.53;100.00;101976.22;10333907;28;20053;-73
2022/06/27 20:11:28;;;;;;;4.93;1.85;;;;;;;15.46;100.00;101976.19;10369868;28;20041;-75
2022/06/27 20:16:30;;;;;;;4.10;1.95;;;;;;;15.38;100.00;101979.09;10372858;28;20041;-74
2022/06/27 20:21:30;;;;;;;6.07;2.53;;;;;;;15.34;100.00;101986.00;10372813;28;20500;-77
2022/06/27 20:26:31;;;;;;;8.60;2.70;;;;;;;15.28;100.00;101990.41;10372343;28;20109;-74
2022/06/27 20:31:31;;;;;;;10.93;2.75;;;;;;;15.32;100.00;101985.38;10373629;28;20462;-73
2022/06/27 20:36:32;;;;;;;7.53;3.20;;;;;;;15.31;100.00;101995.41;10373481;28;20034;-75
2022/06/27 20:41:32;;;;;;;7.55;3.75;;;;;;;15.27;100.00;101998.75;10372711;28;20053;-75
2022/06/27 20:46:33;;;;;;;4.75;2.63;;;;;;;15.17;100.00;101995.56;10371831;28;20378;-72
2022/06/27 20:51:33;;;;;;;13.55;2.92;;;;;;;15.15;100.00;101989.47;10372321;28;20042;-73
2022/06/27 20:56:34;;;;;;;7.55;2.67;;;;;;;15.06;100.00;101992.38;10387895;28;20045;-73
2022/06/27 21:01:34;;;;;;;2.50;2.08;;;;;;;14.97;100.00;101990.84;10387740;28;20049;-79
2022/06/27 21:06:35;;;;;;;10.98;2.28;;;;;;;14.82;100.00;101987.38;10373424;28;20050;-79
2022/06/27 21:11:56;;;;;;;7.28;2.22;;;;;;;14.73;100.00;101983.09;10372750;28;20037;-80
2022/06/27 21:16:56;;;;;;;8.68;1.88;;;;;;;14.61;100.00;101993.69;10373105;28;20038;-79
2022/06/27 21:21:57;;;;;;;10.18;2.50;;;;;;;14.58;100.00;101994.97;10372761;28;20389;-79
2022/06/27 21:26:59;;;;;;;5.43;2.20;;;;;;;14.56;100.00;101999.75;10372470;28;20030;-79
2022/06/27 21:32:03;;;;;;;7.18;2.15;;;;;;;14.47;100.00;102000.06;10373237;28;20072;-79
2022/06/27 21:37:03;;;;;;;3.20;2.22;;;;;;;14.48;100.00;102008.03;10384718;28;20045;-80
2022/06/27 21:42:04;;;;;;;10.45;3.60;;;;;;;14.52;100.00;102008.53;10372127;28;20034;-79
2022/06/27 21:47:05;;;;;;;7.47;2.13;;;;;;;14.55;100.00;102006.25;10388154;28;20026;-79
2022/06/27 21:57:24;;;;;;;6.78;2.97;;;;;;;14.44;100.00;102004.03;10386012;28;20153;-84
2022/06/27 22:02:25;;;;;;;5.97;3.72;;;;;;;14.42;100.00;102004.22;10389008;28;20120;-82
2022/06/27 22:07:25;;;;;;;9.55;3.22;;;;;;;14.37;100.00;102000.41;10394814;28;20053;-83
2022/06/27 22:12:25;;;;;;;13.07;3.38;;;;;;;14.29;100.00;101993.19;10391864;28;20038;-83
2022/06/27 22:17:26;;;;;;;13.52;3.63;;;;;;;14.27;100.00;102003.47;10379735;28;20504;-82
2022/06/27 22:22:26;;;;;;;7.72;2.95;;;;;;;14.22;100.00;102010.53;10379820;28;20060;-83
2022/06/27 22:27:27;;;;;;;7.28;2.65;;;;;;;14.18;100.00;102013.63;10378919;28;20065;-83
2022/06/27 22:32:27;;;;;;;10.20;2.88;;;;;;;14.14;100.00;102001.44;10377899;28;20371;-83
2022/06/27 22:37:28;;;;;;;10.90;3.38;;;;;;;14.19;100.00;102006.28;10395706;28;20041;-83
2022/06/27 22:42:28;;;;;;;4.60;2.72;;;;;;;14.17;100.00;102020.13;10379684;28;20038;-82
2022/06/27 22:47:29;;;;;;;4.40;2.13;;;;;;;14.11;100.00;102022.78;10377414;28;20481;-83
2022/06/27 22:52:29;;;;;;;5.90;3.05;;;;;;;14.05;100.00;102018.94;10378408;28;20038;-83
2022/06/27 22:57:29;;;;;;;10.10;3.13;;;;;;;13.95;100.00;102023.88;10377767;28;20054;-83
2022/06/27 23:02:30;;;;;;;8.98;2.95;;;;;;;13.91;100.00;102031.59;10378252;28;20563;-83
2022/06/27 23:07:30;;;;;;;3.67;3.03;;;;;;;13.85;100.00;102026.06;10377776;28;20397;-83
2022/06/27 23:12:31;;;;;;;6.97;2.70;;;;;;;13.80;100.00;102029.34;10378055;28;20040;-83